Historyczne dane pomiarowe

Dodano dane terminowe – wersja testowa.

Dane z okresu 1951-2019

Wersja bazy: 1.34 [2019-03-16, lista zmian], aktualizacja planowana na 2019-04-15

Dane meteo z obszaru Polski uzyskane na podstawie danych udostępnionych przez Instytut Meteorologii i Gospodarki Wodnej – Państwowy Instytut Badawczy.

 

Wybierz Datę:    

       

TemperaturaWilgotnośćWiatrCiśnienieOpadyŚniegCzas trwania zjawisk
 Stacja t tx tn tng RH VA  wxwx mslp ppp RRR   cm mm wxwxwxwxwxwxwx
1987-08-14 13.3 18.0 7.5 3.5 89.3- 6.7 2.7---- 1.3------------
1987-08-13 12.7 18.8 4.2 1.5 80.5- 4.7 2.7---- 0.0------------
1987-08-12 12.1 17.4 6.5 4.7 81.0- 3.0 3.3---- 0.0------------
1987-08-11 13.1 16.6 10.5 9.2 90.3- 6.3 2.7---- 1.3------------
1987-08-10 14.0 20.4 12.4 12.0 97.0- 8.0 2.7---- 5.3------------
1987-08-09 16.7 23.4 10.1 5.8 76.3- 6.7 0.3---- 16.1------------
1987-08-08 13.9 20.9 5.8 3.5 75.8- 3.0 3.3---- 0.0------------
1987-08-07 12.2 18.4 6.0 4.4 78.3- 3.3 5.0---- 0.0------------
1987-08-06 11.6 14.7 9.1 7.8 89.3- 6.7 5.0---- 0.8------------
1987-08-05 12.1 17.2 6.3 4.5 82.8- 4.0 4.0---- 0.0------------
1987-08-04 13.0 16.9 11.4 9.5 93.8- 6.7 2.0---- 4.1------------
1987-08-03 13.3 18.1 9.3 7.6 84.3- 5.3 2.3---- 0.3------------
1987-08-02 13.6 17.9 9.6 8.1 88.5- 6.7 3.3---- 1.4------------
1987-08-01 15.4 19.1 11.2 9.5 89.5- 7.7 3.7---- 2.1------------
1987-07-31 15.6 20.5 12.9 12.3 91.5- 7.3 4.0---- 7.7------------
1987-07-30 17.8 23.9 9.6 6.8 74.5- 1.3 0.3---- 2.5------------
1987-07-29 14.3 18.5 10.4 9.7 81.5- 4.7 4.3---- 0.0------------
1987-07-28 14.0 18.4 11.3 10.8 84.3- 6.3 6.3---- 0.6------------
1987-07-27 11.9 16.6 6.6 5.4 73.8- 7.3 5.0---- 2.5------------
1987-07-26 13.1 16.2 10.9 9.5 83.3- 6.0 4.0---- 0.0------------
1987-07-25 16.6 20.9 14.1 12.0 83.5- 6.3 4.0---- 0.0------------
1987-07-24 19.9 24.1 15.5 13.5 81.5- 1.3 2.0---- 0.0------------
1987-07-23 19.8 26.0 12.0 11.0 80.8- 1.0 1.3---- 0.0------------
1987-07-22 19.0 20.9 16.9 15.7 91.3- 6.0 0.0---- 0.0------------
1987-07-21 18.5 24.9 10.2 9.7 82.0- 1.0 0.7---- 0.0------------
1987-07-20 18.3 20.6 16.2 16.2 89.8- 5.7 2.7---- 0.0------------
1987-07-19 18.4 23.8 17.3 16.7 91.8- 8.0 4.0---- 8.2------------
1987-07-18 21.3 25.3 17.2 16.6 89.5- 4.0 4.0---- 0.0------------
1987-07-17 18.6 23.5 14.5 13.7 87.8- 7.0 4.0---- 11.1------------
1987-07-16 18.3 25.1 10.5 9.4 73.3- 2.7 3.7---- 0.0------------
1987-07-15 17.0 21.9 9.5 6.9 70.8- 0.3 2.7---- 0.0------------
1987-07-14 15.5 20.0 7.9 6.7 79.0- 1.3 2.7---- 0.0------------
1987-07-13 15.5 19.1 10.7 9.3 84.8- 6.0 4.0---- 0.0------------
1987-07-12 18.3 25.5 14.0 12.9 89.8- 4.7 2.0---- 4.3------------
1987-07-11 15.3 21.4 8.1 6.0 87.8- 7.7 5.0---- 23.8------------
1987-07-10 13.9 18.3 9.0 7.8 76.5- 4.3 6.0---- 0.0------------
1987-07-09 17.4 22.0 15.3 10.4 91.0- 6.0 2.0---- 0.0------------
1987-07-08 21.3 28.3 14.6 11.0 77.0- 3.7 3.7---- 3.4------------
1987-07-07 20.0 26.4 11.2 11.0 70.8- 0.0 1.0---- 0.0------------
1987-07-06 18.7 24.7 9.8 6.3 71.0- 0.0 0.0---- 0.0------------
1987-07-05 16.7 21.4 12.2 10.5 80.3- 3.3 3.0---- 0.0------------
1987-07-04 18.0 23.2 12.9 11.2 74.3- 4.0 2.0---- 0.0------------
1987-07-03 18.0 22.9 11.7 9.1 78.8- 3.0 2.7---- 0.0------------
1987-07-02 19.6 22.4 16.8 16.6 80.3- 6.3 1.7---- 0.0------------
1987-07-01 24.2 30.6 19.1 15.2 81.8- 3.3 4.0---- 3.6------------
1987-06-30 23.8 29.8 18.0 14.1 80.0- 1.3 1.3---- 0.0------------
1987-06-29 19.6 24.9 13.6 11.8 82.8- 2.7 2.7---- 0.0------------
1987-06-28 18.0 22.7 14.0 11.1 85.3- 6.7 3.0---- 0.0------------
1987-06-27 18.1 21.6 15.7 13.8 83.5- 5.0 1.3---- 0.0------------
1987-06-26 16.6 22.8 10.7 8.3 79.3- 3.7 2.7---- 2.1------------
1987-06-25 14.5 17.3 11.0 11.3 82.5- 6.0 3.0---- 1.7------------
1987-06-24 15.9 20.0 11.3 9.8 72.8- 6.0 2.3---- 11.3------------
1987-06-23 16.3 19.7 13.4 12.4 78.3- 7.7 2.3---- 0.7------------
1987-06-22 17.1 23.1 12.3 9.0 80.5- 4.3 3.0---- 0.0------------
1987-06-21 18.4 23.9 11.6 9.5 66.3- 0.7 2.3---- 0.0------------
1987-06-20 16.5 21.0 10.0 6.0 67.5- 2.7 2.7---- 0.0------------
1987-06-19 12.8 16.7 7.3 5.5 73.5- 5.3 4.7---- 0.0------------
1987-06-18 11.4 15.6 7.5 4.1 77.3- 2.3 5.0---- 0.7------------
1987-06-17 12.5 14.6 10.3 8.8 71.0- 6.0 3.7---- 0.0------------
1987-06-16 12.6 24.3 10.0 10.0 91.3- 8.0 6.3---- 6.7------------
478.5 ms

 

Źródłem pochodzenia danych jest Instytut Meteorologii i Gospodarki Wodnej – Państwowy Instytut Badawczy. Dane Instytutu Meteorologii i Gospodarki Wodnej – Państwowego Instytutu Badawczego zostały przetworzone.

Dane źródłowe można odnaleźć na stronie https://dane.imgw.pl